Time;durP1;ratioP1;P1;durP2;ratioP2;P2;SDS_P1;SDS_P2;PMS_P1;PMS_P2;Temp;Humidity;BMP_temperature;BMP_pressure;BME280_temperature;BME280_humidity;BME280_pressure;Samples;Min_cycle;Max_cycle;Signal;HPM_P1;HPM_P2
2021/04/04 00:02:03;;;;;;;5.33;2.37;;;4.10;99.90;;;;;;5051754;28;20225;-72
2021/04/04 00:04:29;;;;;;;4.07;2.30;;;4.10;99.90;;;;;;5049823;28;20283;-72
2021/04/04 00:06:56;;;;;;;7.53;2.50;;;4.10;99.90;;;;;;5052982;28;20217;-71
2021/04/04 00:09:22;;;;;;;4.80;2.30;;;4.10;99.90;;;;;;5054602;28;20291;-72
2021/04/04 00:11:49;;;;;;;7.53;2.93;;;4.10;99.90;;;;;;5053110;28;20289;-72
2021/04/04 00:14:15;;;;;;;5.63;2.57;;;4.10;99.90;;;;;;5052163;28;20690;-71
2021/04/04 00:16:43;;;;;;;5.50;2.20;;;4.10;99.90;;;;;;5058143;28;20272;-71
2021/04/04 00:19:09;;;;;;;5.10;2.80;;;4.10;99.90;;;;;;5053253;28;20740;-71
2021/04/04 00:21:35;;;;;;;5.83;2.63;;;4.10;99.90;;;;;;5053434;28;20321;-71
2021/04/04 00:24:03;;;;;;;4.77;2.80;;;4.00;99.90;;;;;;5053511;28;20221;-71
2021/04/04 00:26:30;;;;;;;5.37;3.10;;;4.10;99.90;;;;;;5053638;28;20215;-71
2021/04/04 00:28:56;;;;;;;10.17;3.10;;;4.00;99.90;;;;;;5059079;28;20209;-71
2021/04/04 00:31:22;;;;;;;4.53;3.00;;;4.00;99.90;;;;;;5057766;28;20222;-71
2021/04/04 00:33:49;;;;;;;6.70;3.07;;;4.00;99.90;;;;;;5054780;28;20639;-72
2021/04/04 00:36:16;;;;;;;7.00;2.87;;;3.90;99.90;;;;;;5057846;28;20201;-70
2021/04/04 00:38:43;;;;;;;8.00;2.90;;;3.90;99.90;;;;;;5051557;28;20563;-71
2021/04/04 00:41:09;;;;;;;8.27;3.60;;;3.80;99.90;;;;;;5054714;28;20263;-71
2021/04/04 00:43:35;;;;;;;9.83;3.53;;;3.80;99.90;;;;;;5055464;28;20212;-71
2021/04/04 00:46:02;;;;;;;8.60;3.27;;;3.80;99.90;;;;;;5053208;28;20267;-71
2021/04/04 00:48:28;;;;;;;7.10;3.40;;;3.80;99.90;;;;;;5055003;28;20618;-70
2021/04/04 00:50:56;;;;;;;4.87;3.03;;;3.80;99.90;;;;;;5054765;28;20613;-72
2021/04/04 00:53:22;;;;;;;8.43;3.37;;;3.70;99.90;;;;;;5061053;28;20202;-72
2021/04/04 00:55:48;;;;;;;8.53;3.53;;;3.70;99.90;;;;;;5052027;28;20202;-71
2021/04/04 00:58:15;;;;;;;8.30;3.50;;;3.70;99.90;;;;;;5056583;28;20309;-71
2021/04/04 01:00:41;;;;;;;9.07;3.43;;;3.70;99.90;;;;;;5057187;28;20610;-71
2021/04/04 01:03:08;;;;;;;7.77;3.40;;;3.70;99.90;;;;;;5054060;28;20301;-71
2021/04/04 01:05:37;;;;;;;4.83;2.53;;;3.70;99.90;;;;;;5051080;28;20251;-71
2021/04/04 01:08:05;;;;;;;5.93;3.10;;;3.70;99.90;;;;;;5051249;28;20194;-72
2021/04/04 01:10:34;;;;;;;9.67;2.93;;;3.70;99.90;;;;;;5049104;28;20241;-71
2021/04/04 01:13:11;;;;;;;9.03;2.80;;;3.70;99.90;;;;;;5051902;28;20366;-72
2021/04/04 01:15:43;;;;;;;6.03;2.73;;;3.70;99.90;;;;;;5047614;28;20217;-72
2021/04/04 01:18:16;;;;;;;7.83;3.27;;;3.70;99.90;;;;;;5045348;28;20232;-72
2021/04/04 01:20:46;;;;;;;4.60;2.30;;;3.70;99.90;;;;;;5055569;28;20652;-71
2021/04/04 01:23:49;;;;;;;7.60;2.43;;;3.70;99.90;;;;;;5050592;28;20228;-71
2021/04/04 01:26:27;;;;;;;6.63;2.80;;;3.70;99.90;;;;;;5041727;28;20680;-70
2021/04/04 01:28:56;;;;;;;5.43;2.57;;;3.70;99.90;;;;;;5048596;28;20230;-71
2021/04/04 01:31:23;;;;;;;4.83;2.40;;;3.70;99.90;;;;;;5048363;28;20216;-71
2021/04/04 01:33:52;;;;;;;4.57;2.33;;;3.70;99.90;;;;;;5050275;28;20203;-71
2021/04/04 01:36:21;;;;;;;5.93;2.60;;;3.70;99.90;;;;;;5055406;28;20209;-71
2021/04/04 01:38:48;;;;;;;3.20;2.13;;;3.70;99.90;;;;;;5057110;28;20307;-72
2021/04/04 01:41:22;;;;;;;4.87;2.23;;;3.70;99.90;;;;;;5051515;28;20205;-72
2021/04/04 01:43:50;;;;;;;4.30;1.93;;;3.80;99.90;;;;;;5057780;28;20205;-70
2021/04/04 01:46:19;;;;;;;4.70;2.30;;;3.70;99.90;;;;;;5053431;28;20336;-71
2021/04/04 01:48:46;;;;;;;3.87;2.23;;;3.80;99.90;;;;;;5053842;28;20662;-71
2021/04/04 01:51:13;;;;;;;3.87;2.00;;;3.80;99.90;;;;;;5052628;28;20206;-71
2021/04/04 01:53:41;;;;;;;2.63;1.63;;;3.90;99.90;;;;;;5059693;28;20279;-71
2021/04/04 01:56:08;;;;;;;4.10;1.97;;;3.90;99.90;;;;;;5048746;28;20212;-72
2021/04/04 01:58:37;;;;;;;3.73;2.07;;;3.90;99.90;;;;;;5056682;28;20311;-70
2021/04/04 02:01:04;;;;;;;5.63;2.20;;;3.90;99.90;;;;;;5051138;28;20229;-72
2021/04/04 02:03:33;;;;;;;4.77;2.17;;;3.90;99.90;;;;;;5052584;28;20230;-71
2021/04/04 02:06:00;;;;;;;3.37;1.67;;;3.90;99.90;;;;;;5052515;28;20213;-72
2021/04/04 02:08:27;;;;;;;4.30;1.90;;;3.90;99.90;;;;;;5052220;28;20705;-71
2021/04/04 02:10:55;;;;;;;3.53;2.10;;;3.90;99.90;;;;;;5053207;28;20198;-70
2021/04/04 02:13:23;;;;;;;9.53;2.60;;;3.90;99.90;;;;;;5051984;28;20237;-71
2021/04/04 02:15:50;;;;;;;3.93;1.90;;;4.00;99.90;;;;;;5053339;28;20210;-70
2021/04/04 02:18:16;;;;;;;3.30;1.53;;;3.90;99.90;;;;;;5058749;28;20282;-71
2021/04/04 02:20:46;;;;;;;4.53;2.03;;;3.90;99.90;;;;;;5055157;28;20301;-73
2021/04/04 02:23:14;;;;;;;5.00;2.17;;;3.80;99.90;;;;;;5048216;28;20213;-73
2021/04/04 02:25:41;;;;;;;5.10;2.10;;;3.80;99.90;;;;;;5051259;28;20659;-71
2021/04/04 02:28:10;;;;;;;4.50;1.90;;;3.80;99.90;;;;;;5052609;28;20207;-73
2021/04/04 02:30:36;;;;;;;3.70;2.07;;;3.80;99.90;;;;;;5054728;28;20201;-72
2021/04/04 02:33:10;;;;;;;3.90;2.20;;;3.90;99.90;;;;;;5054445;28;20262;-71
2021/04/04 02:35:40;;;;;;;3.80;1.70;;;3.90;99.90;;;;;;5051988;28;20218;-72
2021/04/04 02:38:12;;;;;;;5.87;1.93;;;3.90;99.90;;;;;;5058852;28;20229;-70
2021/04/04 02:40:42;;;;;;;5.50;2.10;;;4.00;99.90;;;;;;5050559;28;20205;-72
2021/04/04 02:43:12;;;;;;;5.50;2.30;;;4.00;99.90;;;;;;5053648;28;20206;-73
2021/04/04 02:45:40;;;;;;;6.17;2.30;;;3.90;99.90;;;;;;5052409;28;20205;-73
2021/04/04 02:48:14;;;;;;;3.53;1.83;;;4.00;99.90;;;;;;5055249;28;20631;-72
2021/04/04 02:50:41;;;;;;;3.60;1.90;;;3.90;99.90;;;;;;5052297;28;20201;-71
2021/04/04 02:53:10;;;;;;;4.17;2.20;;;4.00;99.90;;;;;;5053947;28;20240;-73
2021/04/04 02:55:37;;;;;;;5.13;2.17;;;3.90;99.90;;;;;;5053638;28;20327;-71
2021/04/04 02:58:06;;;;;;;4.90;2.10;;;3.90;99.90;;;;;;5055578;28;20202;-72
2021/04/04 03:00:34;;;;;;;4.83;2.30;;;3.90;99.90;;;;;;5047522;28;20207;-73
2021/04/04 03:03:03;;;;;;;3.27;2.00;;;3.80;99.90;;;;;;5053558;28;20214;-74
2021/04/04 03:05:31;;;;;;;6.23;2.07;;;3.90;99.90;;;;;;5055144;28;20686;-73
2021/04/04 03:08:01;;;;;;;4.30;1.80;;;3.90;99.90;;;;;;5056429;28;20217;-73
2021/04/04 03:10:30;;;;;;;3.10;2.00;;;3.90;99.90;;;;;;5056401;28;20281;-72
2021/04/04 03:12:57;;;;;;;5.00;2.43;;;3.90;99.90;;;;;;5056717;28;20241;-73
2021/04/04 03:15:24;;;;;;;2.70;2.00;;;3.90;99.90;;;;;;5051303;28;20308;-73
2021/04/04 03:17:52;;;;;;;4.60;1.97;;;4.00;99.90;;;;;;5051715;28;20210;-73
2021/04/04 03:20:20;;;;;;;4.63;2.70;;;4.00;99.90;;;;;;5050103;28;20211;-73
2021/04/04 03:22:48;;;;;;;3.17;1.87;;;4.00;99.90;;;;;;5056197;28;20252;-73
2021/04/04 03:25:15;;;;;;;3.23;2.20;;;4.00;99.90;;;;;;5057651;28;20253;-72
2021/04/04 03:27:44;;;;;;;4.97;2.20;;;3.90;99.90;;;;;;5056385;28;20210;-74
2021/04/04 03:30:35;;;;;;;4.93;2.40;;;3.90;99.90;;;;;;5060109;28;20202;-73
2021/04/04 03:33:02;;;;;;;3.90;2.47;;;3.90;99.90;;;;;;5059315;28;20579;-73
2021/04/04 03:35:30;;;;;;;3.23;2.30;;;3.90;99.90;;;;;;5052507;28;20237;-74
2021/04/04 03:37:58;;;;;;;5.63;2.63;;;3.90;99.90;;;;;;5059268;28;20218;-73
2021/04/04 03:40:25;;;;;;;3.43;2.33;;;3.80;99.90;;;;;;5057709;28;20210;-73
2021/04/04 03:42:53;;;;;;;6.83;2.90;;;3.80;99.90;;;;;;5060800;28;20236;-73
2021/04/04 03:45:22;;;;;;;5.30;2.30;;;3.70;99.90;;;;;;5059454;28;20250;-73
2021/04/04 03:47:49;;;;;;;3.93;2.87;;;3.70;99.90;;;;;;5049656;28;20205;-73
2021/04/04 03:50:18;;;;;;;5.43;2.47;;;3.70;99.90;;;;;;5059722;28;20666;-72
2021/04/04 03:52:46;;;;;;;4.40;3.07;;;3.70;99.90;;;;;;5060714;28;20210;-73
2021/04/04 03:55:16;;;;;;;3.23;2.50;;;3.70;99.90;;;;;;5059085;28;20304;-73
2021/04/04 03:57:44;;;;;;;5.17;2.87;;;3.70;99.90;;;;;;5056208;28;20243;-73
2021/04/04 04:00:14;;;;;;;8.30;4.13;;;3.60;99.90;;;;;;5055151;28;20253;-73
2021/04/04 04:02:42;;;;;;;4.10;3.17;;;3.60;99.90;;;;;;5055132;28;20206;-73
2021/04/04 04:05:09;;;;;;;4.27;3.23;;;3.70;99.90;;;;;;5061625;28;20232;-72
2021/04/04 04:07:38;;;;;;;5.23;2.90;;;3.60;99.90;;;;;;5060139;28;20206;-72
2021/04/04 04:10:06;;;;;;;7.20;3.10;;;3.70;99.90;;;;;;5051265;28;20253;-72
2021/04/04 04:12:34;;;;;;;3.57;2.67;;;3.70;99.90;;;;;;5056300;28;20229;-72
2021/04/04 04:15:01;;;;;;;5.17;3.40;;;3.70;99.90;;;;;;5052558;28;20254;-73
2021/04/04 04:17:29;;;;;;;6.67;2.90;;;3.70;99.90;;;;;;5053239;28;20198;-72
2021/04/04 04:19:55;;;;;;;4.87;2.90;;;3.70;99.90;;;;;;5049684;28;20276;-73
2021/04/04 04:22:23;;;;;;;7.97;3.23;;;3.70;99.90;;;;;;5055116;28;20214;-73
2021/04/04 04:24:51;;;;;;;5.23;2.77;;;3.70;99.90;;;;;;5054727;28;20255;-73
2021/04/04 04:27:18;;;;;;;12.27;4.00;;;3.80;99.90;;;;;;5052565;28;20736;-72
2021/04/04 04:29:46;;;;;;;5.33;2.97;;;3.80;99.90;;;;;;5060242;28;20230;-72
2021/04/04 04:32:14;;;;;;;4.27;2.90;;;3.80;99.90;;;;;;5058056;28;20210;-71
2021/04/04 04:34:43;;;;;;;7.03;3.30;;;3.80;99.90;;;;;;5055143;28;20654;-72
2021/04/04 04:37:11;;;;;;;3.43;2.93;;;3.90;99.90;;;;;;5054950;28;20662;-72
2021/04/04 04:39:39;;;;;;;7.40;3.20;;;3.90;99.90;;;;;;5056381;28;20619;-72
2021/04/04 04:42:09;;;;;;;6.50;3.03;;;3.90;99.90;;;;;;5052813;28;20218;-72
2021/04/04 04:44:37;;;;;;;4.70;2.97;;;3.80;99.90;;;;;;5061309;28;20265;-71
2021/04/04 04:47:04;;;;;;;4.37;2.80;;;3.80;99.90;;;;;;5055777;28;20209;-72
2021/04/04 04:49:30;;;;;;;5.23;3.13;;;3.80;99.90;;;;;;5055676;28;20322;-71
2021/04/04 04:51:57;;;;;;;4.17;2.47;;;3.80;99.90;;;;;;5055162;28;20216;-71
2021/04/04 04:54:24;;;;;;;3.53;2.63;;;3.90;99.90;;;;;;5057254;28;20738;-70
2021/04/04 04:56:50;;;;;;;5.13;2.70;;;3.80;99.90;;;;;;5059299;28;20213;-71
2021/04/04 04:59:18;;;;;;;6.83;2.87;;;3.80;99.90;;;;;;5054294;28;20232;-71
2021/04/04 05:01:46;;;;;;;4.17;2.30;;;3.80;99.90;;;;;;5050791;28;20210;-70
2021/04/04 05:04:13;;;;;;;4.93;3.07;;;3.80;99.90;;;;;;5059472;28;20288;-71
2021/04/04 05:06:42;;;;;;;5.53;3.30;;;3.80;99.90;;;;;;5057798;28;20651;-71
2021/04/04 05:09:10;;;;;;;3.73;2.60;;;3.70;99.90;;;;;;5060557;28;20202;-71
2021/04/04 05:11:42;;;;;;;5.77;3.13;;;3.70;99.90;;;;;;5054760;28;20546;-71
2021/04/04 05:14:10;;;;;;;5.37;2.87;;;3.70;99.90;;;;;;5053843;28;20709;-71
2021/04/04 05:16:36;;;;;;;5.27;2.70;;;3.70;99.90;;;;;;5050345;28;20205;-72
2021/04/04 05:19:06;;;;;;;4.67;2.90;;;3.70;99.90;;;;;;5054650;28;20257;-72
2021/04/04 05:21:33;;;;;;;4.33;2.93;;;3.60;99.90;;;;;;5054662;28;20288;-70
2021/04/04 05:24:00;;;;;;;6.00;3.20;;;3.60;99.90;;;;;;5053507;28;20209;-71
2021/04/04 05:26:30;;;;;;;5.40;3.30;;;3.60;99.90;;;;;;5062873;28;20294;-71
2021/04/04 05:29:03;;;;;;;4.63;3.43;;;3.50;99.90;;;;;;5056009;28;20629;-72
2021/04/04 05:31:29;;;;;;;7.20;3.33;;;3.50;99.90;;;;;;5053345;28;20198;-72
2021/04/04 05:33:56;;;;;;;4.37;3.07;;;3.50;99.90;;;;;;5054111;28;20248;-72
2021/04/04 05:36:22;;;;;;;4.10;3.07;;;3.60;99.90;;;;;;5054299;28;20208;-71
2021/04/04 05:38:49;;;;;;;5.97;3.50;;;3.60;99.90;;;;;;5052293;28;20317;-70
2021/04/04 05:41:17;;;;;;;7.53;4.00;;;3.70;99.90;;;;;;5053538;28;20228;-71
2021/04/04 05:43:54;;;;;;;7.20;4.60;;;3.70;99.90;;;;;;5054767;28;20584;-73
2021/04/04 05:46:28;;;;;;;4.90;3.27;;;3.80;99.90;;;;;;5053517;28;20630;-71
2021/04/04 05:49:00;;;;;;;5.63;4.00;;;3.80;99.90;;;;;;5054613;28;20348;-71
2021/04/04 05:51:46;;;;;;;4.63;3.73;;;3.80;99.90;;;;;;5054651;28;20201;-70
2021/04/04 05:54:25;;;;;;;4.67;3.43;;;3.70;99.90;;;;;;5052803;28;20269;-71
2021/04/04 05:56:53;;;;;;;7.20;3.50;;;3.70;99.90;;;;;;5053373;28;20206;-71
2021/04/04 05:59:27;;;;;;;7.70;4.13;;;3.80;99.90;;;;;;5045993;28;20320;-71
2021/04/04 06:02:31;;;;;;;5.57;3.60;;;3.70;99.90;;;;;;5053287;28;20340;-70
2021/04/04 06:05:03;;;;;;;4.40;3.13;;;3.70;99.90;;;;;;5049768;28;20206;-71
2021/04/04 06:08:01;;;;;;;4.60;3.70;;;3.70;99.90;;;;;;5060684;28;20540;-71
2021/04/04 06:10:40;;;;;;;4.83;3.50;;;3.70;99.90;;;;;;5053256;28;20304;-71
2021/04/04 06:13:16;;;;;;;7.20;3.57;;;3.70;99.90;;;;;;5049691;28;20241;-71
2021/04/04 06:15:56;;;;;;;6.50;2.93;;;3.70;99.90;;;;;;5050374;28;20268;-71
2021/04/04 06:18:31;;;;;;;4.30;2.87;;;3.80;99.90;;;;;;5056303;28;20197;-72
2021/04/04 06:21:02;;;;;;;4.00;3.60;;;3.90;99.90;;;;;;5052868;28;20295;-72
2021/04/04 06:23:34;;;;;;;5.70;3.00;;;4.00;99.90;;;;;;5050925;28;20722;-72
2021/04/04 06:26:13;;;;;;;4.20;3.33;;;4.10;99.90;;;;;;5051912;28;20233;-71
2021/04/04 06:28:51;;;;;;;5.27;3.00;;;4.10;99.90;;;;;;5052224;28;20615;-71
2021/04/04 06:31:24;;;;;;;4.57;2.70;;;4.20;99.90;;;;;;5052340;28;20213;-71
2021/04/04 06:34:01;;;;;;;3.80;2.57;;;4.30;99.90;;;;;;5053013;28;20570;-71
2021/04/04 06:36:37;;;;;;;7.37;2.83;;;4.30;99.90;;;;;;5055965;28;20228;-71
2021/04/04 06:39:07;;;;;;;5.37;2.97;;;4.30;99.90;;;;;;5056066;28;20238;-71
2021/04/04 06:42:01;;;;;;;4.33;2.77;;;4.40;99.90;;;;;;5054146;28;20289;-70
2021/04/04 06:44:38;;;;;;;4.47;3.00;;;4.40;99.90;;;;;;5052123;28;20209;-71
2021/04/04 06:47:14;;;;;;;3.97;2.60;;;4.50;99.90;;;;;;5056545;28;20198;-71
2021/04/04 06:49:52;;;;;;;4.33;2.80;;;4.50;99.90;;;;;;5055459;28;20200;-71
2021/04/04 06:52:42;;;;;;;5.90;2.67;;;4.60;99.90;;;;;;5050656;28;20225;-71
2021/04/04 06:55:13;;;;;;;6.87;3.10;;;4.70;99.90;;;;;;5051790;28;20209;-71
2021/04/04 06:57:50;;;;;;;4.43;2.93;;;4.80;99.90;;;;;;5048215;28;20283;-70
2021/04/04 07:00:23;;;;;;;3.37;2.47;;;4.90;99.90;;;;;;5052572;28;20724;-69
2021/04/04 07:03:03;;;;;;;3.43;2.43;;;5.00;99.90;;;;;;5055991;28;20633;-71
2021/04/04 07:05:33;;;;;;;5.80;2.97;;;5.10;99.90;;;;;;5057284;28;20198;-71
2021/04/04 07:08:19;;;;;;;3.47;2.77;;;5.20;99.90;;;;;;5050416;28;20205;-70
2021/04/04 07:11:06;;;;;;;4.30;2.43;;;5.30;99.90;;;;;;5054198;28;20206;-70
2021/04/04 07:13:51;;;;;;;4.47;3.03;;;5.30;99.90;;;;;;5053804;28;20698;-71
2021/04/04 07:17:01;;;;;;;3.90;2.73;;;5.50;99.90;;;;;;5047066;28;20694;-69
2021/04/04 07:19:59;;;;;;;5.13;2.87;;;5.60;99.90;;;;;;5057214;28;20765;-71
2021/04/04 07:22:42;;;;;;;4.33;2.97;;;5.80;99.90;;;;;;5051962;28;20210;-72
2021/04/04 07:25:26;;;;;;;6.73;3.43;;;5.80;99.90;;;;;;5056403;28;20206;-72
2021/04/04 07:28:10;;;;;;;5.23;3.40;;;5.80;99.90;;;;;;5055635;28;20285;-74
2021/04/04 07:30:38;;;;;;;5.77;3.47;;;5.80;99.90;;;;;;5060258;28;20233;-72
2021/04/04 07:33:25;;;;;;;4.87;3.43;;;5.80;99.90;;;;;;5050792;28;20214;-73
2021/04/04 07:36:02;;;;;;;4.47;3.57;;;5.80;99.90;;;;;;5049962;28;20234;-72
2021/04/04 07:38:37;;;;;;;6.57;3.67;;;5.70;99.90;;;;;;5054477;28;20273;-72
2021/04/04 07:41:09;;;;;;;6.37;3.60;;;5.70;99.90;;;;;;5057808;28;20239;-71
2021/04/04 07:43:45;;;;;;;5.53;4.43;;;5.80;99.90;;;;;;5049699;28;20198;-74
2021/04/04 07:46:17;;;;;;;5.40;3.77;;;5.90;99.90;;;;;;5058423;28;20228;-71
2021/04/04 07:49:02;;;;;;;5.10;3.83;;;6.00;99.90;;;;;;5056252;28;20202;-71
2021/04/04 07:51:34;;;;;;;6.43;3.70;;;6.10;99.90;;;;;;5052971;28;20212;-72
2021/04/04 07:54:03;;;;;;;6.53;4.13;;;6.20;99.90;;;;;;5050002;28;20670;-71
2021/04/04 07:56:38;;;;;;;7.67;4.23;;;6.40;99.90;;;;;;5049715;28;20210;-73
2021/04/04 07:59:14;;;;;;;4.27;3.40;;;6.50;99.90;;;;;;5047042;28;20246;-72
2021/04/04 08:01:48;;;;;;;6.37;4.23;;;6.80;99.90;;;;;;5053021;28;20605;-71
2021/04/04 08:04:22;;;;;;;4.83;4.10;;;7.00;99.90;;;;;;5055661;28;20202;-72
2021/04/04 08:06:56;;;;;;;5.30;4.57;;;7.20;99.90;;;;;;5054575;28;20639;-72
2021/04/04 08:09:31;;;;;;;5.37;4.50;;;7.40;99.90;;;;;;5056145;28;20659;-70
2021/04/04 08:12:10;;;;;;;6.50;4.60;;;7.50;99.90;;;;;;5056577;28;20254;-69
2021/04/04 08:14:48;;;;;;;6.90;4.13;;;7.70;99.90;;;;;;5046619;28;20229;-72
2021/04/04 08:17:14;;;;;;;6.10;3.73;;;7.80;99.80;;;;;;5054417;28;20266;-73
2021/04/04 08:19:44;;;;;;;5.03;3.93;;;7.80;98.80;;;;;;5053785;28;20237;-71
2021/04/04 08:22:19;;;;;;;5.87;4.00;;;8.00;98.50;;;;;;5055066;28;20293;-71
2021/04/04 08:24:50;;;;;;;5.10;4.03;;;8.20;97.80;;;;;;5054593;28;20207;-72
2021/04/04 08:27:22;;;;;;;9.10;5.27;;;8.50;96.70;;;;;;5056527;28;20206;-73
2021/04/04 08:29:55;;;;;;;6.73;5.03;;;8.70;95.20;;;;;;5055897;28;20198;-70
2021/04/04 08:32:27;;;;;;;5.90;4.80;;;8.90;94.10;;;;;;5055446;28;20206;-71
2021/04/04 08:34:57;;;;;;;6.03;3.90;;;9.10;93.20;;;;;;5049903;28;20297;-71
2021/04/04 08:37:31;;;;;;;4.20;3.80;;;9.30;92.20;;;;;;5053450;28;20291;-69
2021/04/04 08:40:01;;;;;;;4.23;2.97;;;9.60;91.00;;;;;;5041587;28;20215;-72
2021/04/04 08:42:30;;;;;;;4.73;2.90;;;9.80;87.80;;;;;;5054834;28;20244;-71
2021/04/04 08:45:04;;;;;;;4.47;3.13;;;10.10;81.90;;;;;;5047153;28;20206;-70
2021/04/04 08:47:32;;;;;;;8.40;3.67;;;10.20;76.70;;;;;;5050751;28;20274;-71
2021/04/04 08:50:01;;;;;;;4.30;3.10;;;10.20;75.10;;;;;;5052528;28;20293;-71
2021/04/04 08:52:32;;;;;;;3.67;2.53;;;10.30;73.90;;;;;;5054656;28;20224;-71
2021/04/04 08:54:58;;;;;;;3.67;2.20;;;10.20;71.80;;;;;;5055115;28;20216;-70
2021/04/04 08:57:30;;;;;;;2.87;1.77;;;10.30;70.90;;;;;;5046714;28;20631;-68
2021/04/04 08:59:57;;;;;;;3.03;1.80;;;10.20;68.00;;;;;;5055270;28;20214;-71
2021/04/04 09:02:27;;;;;;;2.17;1.60;;;10.10;66.20;;;;;;5064802;28;20407;-69
2021/04/04 09:05:02;;;;;;;2.57;1.73;;;10.20;66.30;;;;;;5049105;28;20659;-70
2021/04/04 09:07:34;;;;;;;2.33;1.87;;;10.40;65.70;;;;;;5055912;28;20538;-70
2021/04/04 09:10:03;;;;;;;3.50;1.80;;;10.80;65.10;;;;;;5056088;28;20284;-73
2021/04/04 09:12:32;;;;;;;2.83;1.60;;;11.20;66.70;;;;;;5054367;28;20280;-68
2021/04/04 09:15:04;;;;;;;1.97;1.67;;;11.70;64.20;;;;;;5054229;28;20701;-71
2021/04/04 09:17:31;;;;;;;1.97;1.80;;;12.20;63.10;;;;;;5054385;28;20297;-69
2021/04/04 09:20:00;;;;;;;2.37;1.53;;;13.20;65.50;;;;;;5055308;28;20321;-70
2021/04/04 09:22:27;;;;;;;2.07;1.73;;;14.20;56.80;;;;;;5054868;28;20301;-70
2021/04/04 09:24:57;;;;;;;1.83;1.73;;;14.70;53.90;;;;;;5052447;28;20293;-71
2021/04/04 09:27:27;;;;;;;1.83;1.40;;;15.50;51.70;;;;;;5052741;28;20206;-71
2021/04/04 09:29:56;;;;;;;1.30;1.13;;;16.20;49.40;;;;;;5054321;28;20198;-70
2021/04/04 09:32:34;;;;;;;1.83;1.10;;;16.70;46.80;;;;;;5054535;28;20214;-70
2021/04/04 09:35:02;;;;;;;1.43;1.33;;;17.30;44.80;;;;;;5046686;28;20232;-72
2021/04/04 09:37:29;;;;;;;1.57;1.47;;;17.60;42.80;;;;;;5051040;28;20214;-72
2021/04/04 09:39:57;;;;;;;2.80;1.63;;;17.70;42.10;;;;;;5049274;28;20222;-71
2021/04/04 09:42:24;;;;;;;1.57;1.20;;;17.90;42.20;;;;;;5049779;28;20290;-71
2021/04/04 09:44:50;;;;;;;2.23;1.50;;;18.00;40.70;;;;;;5051525;28;20702;-73
2021/04/04 09:47:18;;;;;;;1.27;1.10;;;17.80;39.20;;;;;;5049045;28;20234;-71
2021/04/04 09:49:48;;;;;;;3.13;1.50;;;17.60;40.40;;;;;;5050111;28;20202;-71
2021/04/04 09:52:26;;;;;;;1.33;1.00;;;17.50;39.40;;;;;;5049523;28;20677;-73
2021/04/04 09:54:59;;;;;;;1.23;1.07;;;17.70;39.90;;;;;;5053487;28;20229;-73
2021/04/04 09:57:26;;;;;;;1.70;1.07;;;18.20;38.90;;;;;;5053572;28;20206;-71
2021/04/04 09:59:52;;;;;;;1.87;1.30;;;17.90;37.40;;;;;;5052350;28;20218;-72
2021/04/04 10:02:31;;;;;;;1.53;1.30;;;17.50;37.20;;;;;;5051967;28;20301;-71
2021/04/04 10:04:57;;;;;;;1.50;1.40;;;17.40;38.20;;;;;;5053820;28;20233;-73
2021/04/04 10:07:28;;;;;;;1.90;1.35;;;17.50;38.50;;;;;;5052128;28;20216;-71
2021/04/04 10:09:54;;;;;;;2.10;1.43;;;17.60;35.60;;;;;;5048102;28;20217;-70
2021/04/04 10:12:22;;;;;;;2.00;1.47;;;17.20;36.00;;;;;;5050648;28;20234;-73
2021/04/04 10:15:04;;;;;;;3.20;2.07;;;16.60;36.40;;;;;;5050371;28;20225;-72
2021/04/04 10:17:31;;;;;;;2.40;1.60;;;15.90;37.00;;;;;;5049678;28;20327;-72
2021/04/04 10:19:59;;;;;;;2.03;1.40;;;15.70;38.90;;;;;;5054199;28;20237;-72
2021/04/04 10:22:26;;;;;;;2.40;1.60;;;15.80;38.80;;;;;;5053421;28;20293;-72
2021/04/04 10:24:53;;;;;;;2.63;1.30;;;16.10;38.50;;;;;;5050497;28;20256;-71
2021/04/04 10:27:26;;;;;;;2.07;1.47;;;15.80;37.00;;;;;;5054649;28;20288;-73
2021/04/04 10:30:11;;;;;;;2.27;1.20;;;15.50;37.30;;;;;;5052078;28;20194;-72
2021/04/04 10:32:38;;;;;;;2.50;1.43;;;15.40;38.40;;;;;;5050512;28;20202;-72
2021/04/04 10:35:07;;;;;;;2.03;1.20;;;15.40;37.70;;;;;;5050567;28;20300;-73
2021/04/04 10:37:34;;;;;;;1.40;1.20;;;15.30;37.20;;;;;;5050485;28;20289;-73
2021/04/04 10:40:01;;;;;;;2.33;1.70;;;14.90;36.40;;;;;;5054931;28;20218;-71
2021/04/04 10:42:29;;;;;;;3.33;1.50;;;14.50;36.90;;;;;;5054066;28;20708;-72
2021/04/04 10:45:13;;;;;;;2.33;1.77;;;14.10;37.80;;;;;;5051216;28;20628;-71
2021/04/04 10:47:40;;;;;;;1.53;1.43;;;13.80;38.50;;;;;;5054234;28;20279;-72
2021/04/04 10:50:09;;;;;;;1.83;1.43;;;13.50;38.80;;;;;;5058385;28;20206;-72
2021/04/04 10:52:37;;;;;;;2.13;1.43;;;13.10;39.00;;;;;;5054360;28;20236;-71
2021/04/04 10:55:05;;;;;;;1.63;1.27;;;12.70;39.30;;;;;;5050792;28;20278;-72
2021/04/04 10:57:34;;;;;;;3.20;1.20;;;12.60;39.90;;;;;;5052168;28;20713;-72
2021/04/04 11:00:01;;;;;;;1.70;1.10;;;12.80;40.80;;;;;;5052967;28;20226;-71
2021/04/04 11:02:29;;;;;;;2.37;1.50;;;13.00;40.20;;;;;;5052680;28;20706;-71
2021/04/04 11:04:57;;;;;;;1.80;1.23;;;13.30;40.40;;;;;;5052465;28;20670;-70
2021/04/04 11:07:24;;;;;;;2.57;1.20;;;13.70;40.10;;;;;;5054825;28;20210;-71
2021/04/04 11:09:50;;;;;;;1.80;1.10;;;13.80;39.50;;;;;;5052521;28;20538;-71
2021/04/04 11:12:17;;;;;;;2.53;1.40;;;13.90;39.70;;;;;;5051680;28;20226;-72
2021/04/04 11:14:47;;;;;;;1.10;1.00;;;14.10;40.00;;;;;;5050067;28;20293;-71
2021/04/04 11:17:17;;;;;;;1.57;1.10;;;14.30;40.50;;;;;;5046166;28;20585;-70
2021/04/04 11:19:46;;;;;;;2.40;1.30;;;14.70;40.00;;;;;;5050008;28;20332;-72
2021/04/04 11:22:16;;;;;;;1.20;0.97;;;15.00;40.00;;;;;;5050956;28;20210;-70
2021/04/04 11:24:56;;;;;;;3.80;1.30;;;15.30;39.70;;;;;;5054322;28;20310;-70
2021/04/04 11:27:40;;;;;;;1.73;0.70;;;15.60;38.20;;;;;;5051109;28;20321;-71
2021/04/04 11:30:14;;;;;;;1.20;0.97;;;15.70;37.80;;;;;;5053000;28;20209;-72
2021/04/04 11:32:42;;;;;;;1.70;0.90;;;15.50;37.00;;;;;;5053309;28;20210;-71
2021/04/04 11:35:09;;;;;;;1.53;1.10;;;15.40;37.70;;;;;;5053090;28;20648;-71
2021/04/04 11:37:38;;;;;;;1.53;1.40;;;15.20;37.80;;;;;;5049458;28;20249;-71
2021/04/04 11:40:13;;;;;;;1.23;1.13;;;14.90;38.10;;;;;;5055295;28;20239;-70
2021/04/04 11:42:39;;;;;;;1.40;1.00;;;14.70;38.60;;;;;;5049837;28;20289;-71
2021/04/04 11:45:08;;;;;;;2.23;1.10;;;14.50;38.60;;;;;;5054271;28;20657;-71
2021/04/04 11:47:34;;;;;;;1.40;1.10;;;14.30;38.70;;;;;;5053671;28;20243;-70
2021/04/04 11:50:01;;;;;;;2.77;1.30;;;14.10;39.70;;;;;;5055054;28;20229;-71
2021/04/04 11:52:48;;;;;;;1.83;1.17;;;14.10;39.70;;;;;;5056742;28;20683;-72
2021/04/04 11:55:17;;;;;;;1.30;1.20;;;14.10;39.70;;;;;;5056216;28;20245;-71
2021/04/04 11:57:45;;;;;;;1.47;1.33;;;14.10;39.30;;;;;;5056330;28;20210;-72
2021/04/04 12:00:24;;;;;;;3.10;1.50;;;14.00;39.60;;;;;;5058260;28;20221;-71
2021/04/04 12:02:58;;;;;;;2.33;1.33;;;13.90;39.40;;;;;;5067909;28;20226;-73
2021/04/04 12:05:25;;;;;;;2.73;1.40;;;13.80;39.80;;;;;;5058983;28;20639;-71
2021/04/04 12:07:53;;;;;;;3.37;1.63;;;13.80;40.20;;;;;;5055072;28;20206;-71
2021/04/04 12:10:21;;;;;;;2.43;1.30;;;14.00;40.40;;;;;;5054823;28;20210;-74
2021/04/04 12:12:48;;;;;;;1.73;1.20;;;14.20;40.00;;;;;;5053743;28;20287;-73
2021/04/04 12:15:16;;;;;;;1.87;1.20;;;14.60;38.90;;;;;;5055753;28;20304;-70
2021/04/04 12:17:48;;;;;;;2.10;1.20;;;14.90;39.40;;;;;;5053045;28;20292;-72
2021/04/04 12:20:15;;;;;;;3.30;2.10;;;15.20;38.10;;;;;;5051632;28;20574;-72
2021/04/04 12:22:43;;;;;;;2.10;1.37;;;15.10;36.80;;;;;;5055293;28;20288;-72
2021/04/04 12:25:11;;;;;;;2.30;1.33;;;14.80;37.20;;;;;;5055854;28;20305;-72
2021/04/04 12:27:40;;;;;;;2.47;1.50;;;14.60;37.40;;;;;;5055662;28;20619;-73
2021/04/04 12:30:14;;;;;;;1.20;1.00;;;14.50;37.70;;;;;;5058672;28;20300;-72
2021/04/04 12:32:42;;;;;;;1.00;0.90;;;14.50;37.40;;;;;;5056913;28;20607;-72
2021/04/04 12:35:10;;;;;;;2.00;1.10;;;14.60;37.80;;;;;;5057416;28;20245;-73
2021/04/04 12:37:39;;;;;;;1.60;1.13;;;14.90;36.90;;;;;;5057020;28;20305;-72
2021/04/04 12:40:08;;;;;;;1.37;0.93;;;15.20;35.90;;;;;;5055867;28;20222;-72
2021/04/04 12:42:36;;;;;;;1.67;1.07;;;15.40;35.40;;;;;;5055277;28;20206;-72
2021/04/04 12:45:05;;;;;;;1.83;1.30;;;15.40;34.70;;;;;;5049739;28;20209;-72
2021/04/04 12:47:31;;;;;;;1.40;1.27;;;15.30;35.30;;;;;;5056332;28;20300;-72
2021/04/04 12:50:00;;;;;;;1.00;0.90;;;15.20;35.20;;;;;;5054426;28;20234;-72
2021/04/04 12:52:36;;;;;;;3.63;0.93;;;14.90;34.80;;;;;;5056572;28;20218;-72
2021/04/04 12:55:14;;;;;;;1.43;1.03;;;14.70;35.30;;;;;;5054010;28;20241;-72
2021/04/04 12:57:42;;;;;;;0.90;0.87;;;14.70;35.60;;;;;;5054218;28;20201;-72
2021/04/04 13:00:15;;;;;;;2.03;1.00;;;14.90;35.90;;;;;;5053804;28;20742;-68
2021/04/04 13:03:01;;;;;;;2.33;1.50;;;15.00;35.80;;;;;;5053905;28;20240;-72
2021/04/04 13:05:34;;;;;;;1.07;0.80;;;15.10;35.20;;;;;;5053689;28;20738;-72
2021/04/04 13:08:08;;;;;;;1.60;1.00;;;15.30;35.00;;;;;;5057025;28;20216;-73
2021/04/04 13:10:35;;;;;;;2.10;0.90;;;15.30;34.80;;;;;;5054792;28;20201;-73
2021/04/04 13:13:18;;;;;;;2.20;1.20;;;15.40;35.00;;;;;;5056791;28;20241;-71